Semyon Rudnev — USEH — position and weather

sailwx.info

Track history (hours):
 
Tides and Currents Weather Stations Pressure Air Temp Water Temp Dewpoint Dewpoint Depression Visibility Wind Speed Wind Dir Waves Ship Positions

Semyon Rudnev

Last reported at 2017-Oct-22 18:53 UTC. Time now 2017-Oct-23 04:37 UTC.
Position N 48°03' E 035°07'.

Length 114 m; draft 2.6 m.

Type: Cargo ship. MMSI: 272075000.

Date/timePositionNaut miles runAvg speedWind from/ knotsBaromVisibWave heightAir tempDewpointWater temp
2017-Oct-22 18:53N 48°03' E 035°07'3 7.4
2017-Oct-22 18:30N 47°60' E 035°08'4 7.6
2017-Oct-22 18:00N 47°56' E 035°07'3 6.8
2017-Oct-22 17:30N 47°53' E 035°06'1 1.1
2017-Oct-22 16:55N 47°52' E 035°06'0 0.1
2017-Oct-22 16:25N 47°52' E 035°06'0 0.1
2017-Oct-22 15:55N 47°52' E 035°06'0 0.0
2017-Oct-22 15:25N 47°52' E 035°06'0 0.0
2017-Oct-22 14:55N 47°52' E 035°06'0 0.0
2017-Oct-22 14:25N 47°52' E 035°06'0 0.0
2017-Oct-22 13:54N 47°52' E 035°06'0 0.0
2017-Oct-22 13:30N 47°52' E 035°06'0 0.0
2017-Oct-22 13:00N 47°52' E 035°06'0 0.0
2017-Oct-22 12:28N 47°52' E 035°06'0 0.0
2017-Oct-22 11:58N 47°52' E 035°06'0 0.0
2017-Oct-22 11:28N 47°52' E 035°06'0 0.0
2017-Oct-22 10:56N 47°52' E 035°06'0 0.0
2017-Oct-22 10:26N 47°52' E 035°06'0 0.0
2017-Oct-22 09:56N 47°52' E 035°06'0 0.0
2017-Oct-22 09:26N 47°52' E 035°06'0 0.0
2017-Oct-22 08:57N 47°52' E 035°06'0 0.0
2017-Oct-22 08:27N 47°52' E 035°06'0 0.0
2017-Oct-22 07:52N 47°52' E 035°06'0 0.0
2017-Oct-22 07:28N 47°52' E 035°06'0 0.0
2017-Oct-22 06:58N 47°52' E 035°06'0 0.0
2017-Oct-22 06:28N 47°52' E 035°06'0 0.0
2017-Oct-22 05:58N 47°52' E 035°06'0 0.0
2017-Oct-22 05:28N 47°52' E 035°06'0 0.0
2017-Oct-22 04:58N 47°52' E 035°06'0 0.0
2017-Oct-22 04:28N 47°52' E 035°06'0 0.0
2017-Oct-22 03:58N 47°52' E 035°06'0 0.0
2017-Oct-22 03:28N 47°52' E 035°06'0 0.0
2017-Oct-22 02:58N 47°52' E 035°06'0 0.0
2017-Oct-22 02:28N 47°52' E 035°06'0 0.0
2017-Oct-22 01:58N 47°52' E 035°06'0 0.0
2017-Oct-22 01:28N 47°52' E 035°06'0 0.0
2017-Oct-22 00:58N 47°52' E 035°06'0 0.0
2017-Oct-22 00:27N 47°52' E 035°06'0 0.0
2017-Oct-21 23:57N 47°52' E 035°06'0 0.0
2017-Oct-21 23:28N 47°52' E 035°06'0 0.0
2017-Oct-21 22:58N 47°52' E 035°06'0 0.0
2017-Oct-21 22:22N 47°52' E 035°06'0 0.0
2017-Oct-21 21:58N 47°52' E 035°06'0 0.0
2017-Oct-21 21:28N 47°52' E 035°06'0 0.0
2017-Oct-21 20:58N 47°52' E 035°06'0 0.0
2017-Oct-21 20:21N 47°52' E 035°06'0 0.0
2017-Oct-21 19:57N 47°52' E 035°06'0 0.0
2017-Oct-21 19:27N 47°52' E 035°06'0 0.0
2017-Oct-21 18:57N 47°52' E 035°06'0 0.0
2017-Oct-21 18:27N 47°52' E 035°06'0 0.0
2017-Oct-21 17:57N 47°52' E 035°06'0 0.0
2017-Oct-21 17:27N 47°52' E 035°06'0 0.0
2017-Oct-21 16:57N 47°52' E 035°06'0 0.0
2017-Oct-21 16:27N 47°52' E 035°06'0 0.0
2017-Oct-21 15:57N 47°52' E 035°06'0 0.0
2017-Oct-21 15:15N 47°52' E 035°06'0 0.0
2017-Oct-21 14:57N 47°52' E 035°06'0 0.0
2017-Oct-21 14:27N 47°52' E 035°06'1 0.8
2017-Oct-21 13:30N 47°52' E 035°05'0 0.1
2017-Oct-21 13:00N 47°52' E 035°05'2 3.1
2017-Oct-21 12:30N 47°50' E 035°06'3 4.8
2017-Oct-21 11:58N 47°49' E 035°09'0 0.1
2017-Oct-21 11:30N 47°49' E 035°09'2 3.3
2017-Oct-21 11:01N 47°47' E 035°10'3 6.5
2017-Oct-21 10:30N 47°44' E 035°10'4 7.4
2017-Oct-21 09:59N 47°40' E 035°07'135 5.4
2017-Oct-20 09:01N 46°33' E 032°15'11 7.3
2017-Oct-20 07:29N 46°33' E 031°58'4 7.6
2017-Oct-20 06:59N 46°34' E 031°53'4 7.5
2017-Oct-20 06:30N 46°36' E 031°48'8 7.6
2017-Oct-20 05:26N 46°35' E 031°36'5 6.6
2017-Oct-20 04:41N 46°36' E 031°29'1 7.2
2017-Oct-20 04:29N 46°35' E 031°27'3 0.5
2017-Oct-19 21:18N 46°35' E 031°22'0 0.1
2017-Oct-19 20:31N 46°35' E 031°22'0 4.2
2017-Oct-19 20:27N 46°35' E 031°22'3 7.0
2017-Oct-19 20:00N 46°35' E 031°17'4 7.6
2017-Oct-19 19:30N 46°35' E 031°12'4 7.4
2017-Oct-19 19:00N 46°35' E 031°06'4 7.5
2017-Oct-19 18:30N 46°34' E 031°01'5 6.6
2017-Oct-19 17:46N 46°30' E 030°57'2 7.8
2017-Oct-19 17:30N 46°28' E 030°57'4 7.7
2017-Oct-19 17:00N 46°24' E 030°57'4 7.4
2017-Oct-19 16:30N 46°24' E 030°51'4 6.8
2017-Oct-19 15:59N 46°22' E 030°47'4 7.1
2017-Oct-19 15:26N 46°19' E 030°43'0 0.0
2017-Oct-18 15:56N 46°19' E 030°43'5 7.3
2017-Oct-18 15:12N 46°23' E 030°47'1 7.8
2017-Oct-18 15:01N 46°25' E 030°48'5 4.9
2017-Oct-18 14:00N 46°30' E 030°45'0 0.8
2017-Oct-18 13:30N 46°29' E 030°45'0 0.0
2017-Oct-18 12:55N 46°29' E 030°45'0 0.0
2017-Oct-18 12:29N 46°29' E 030°45'0 0.0
2017-Oct-18 11:45N 46°29' E 030°45'0 0.0
2017-Oct-18 11:23N 46°29' E 030°45'0 0.0
2017-Oct-18 11:00N 46°29' E 030°45'0 0.0
2017-Oct-18 10:29N 46°29' E 030°45'0 0.0
2017-Oct-18 09:57N 46°29' E 030°45'0 0.0
2017-Oct-18 09:29N 46°29' E 030°45'0 0.0
2017-Oct-18 08:41N 46°29' E 030°45'0 0.0
2017-Oct-18 08:18N 46°29' E 030°45'0 0.0
2017-Oct-18 08:00N 46°29' E 030°45'0 0.0
2017-Oct-18 07:30N 46°29' E 030°45'0 0.0
2017-Oct-18 06:53N 46°29' E 030°45'0 0.0
2017-Oct-18 06:29N 46°29' E 030°45'0 0.0
2017-Oct-18 05:53N 46°29' E 030°45'0 0.0
2017-Oct-18 05:25N 46°29' E 030°45'0 0.0
2017-Oct-18 05:00N 46°29' E 030°45'0 0.0
2017-Oct-18 04:28N 46°29' E 030°45'0 0.0
2017-Oct-18 03:42N 46°29' E 030°45'0 0.0
2017-Oct-18 03:27N 46°29' E 030°45'0 0.0
2017-Oct-18 02:58N 46°29' E 030°45'0 0.0
2017-Oct-18 02:22N 46°29' E 030°45'0 0.0
2017-Oct-18 01:33N 46°29' E 030°45'0 0.0
2017-Oct-18 01:27N 46°29' E 030°45'0 0.0
2017-Oct-18 00:51N 46°29' E 030°45'0 0.0
2017-Oct-18 00:30N 46°29' E 030°45'0 0.0
2017-Oct-17 23:56N 46°29' E 030°45'0 0.0
2017-Oct-17 23:24N 46°29' E 030°45'0 0.0
2017-Oct-17 22:21N 46°29' E 030°45'0 0.0
2017-Oct-17 21:55N 46°29' E 030°45'0 0.0
2017-Oct-17 21:25N 46°29' E 030°45'0 0.0
2017-Oct-17 20:39N 46°29' E 030°45'0 0.0
2017-Oct-17 20:11N 46°29' E 030°45'0 0.0
2017-Oct-17 19:56N 46°29' E 030°45'0 0.0
2017-Oct-17 18:32N 46°29' E 030°45'0 0.1
2017-Oct-17 18:29N 46°29' E 030°45'0 0.0
2017-Oct-17 18:00N 46°29' E 030°45'0 0.8
2017-Oct-17 17:30N 46°30' E 030°45'3 5.3
2017-Oct-17 17:00N 46°31' E 030°49'4 7.6
2017-Oct-17 16:29N 46°32' E 030°54'31 7.3
2017-Oct-17 12:10N 46°36' E 031°39'1 7.6
2017-Oct-17 12:00N 46°36' E 031°41'4 7.6
2017-Oct-17 11:30N 46°36' E 031°47'4 7.5
2017-Oct-17 11:00N 46°35' E 031°52'4 7.6
2017-Oct-17 10:30N 46°34' E 031°57'4 7.6
2017-Oct-17 09:59N 46°32' E 032°03'142 5.3
2017-Oct-16 07:03N 47°39' E 035°07'2 7.9
2017-Oct-16 06:48N 47°41' E 035°08'2 7.7
2017-Oct-16 06:30N 47°43' E 035°09'4 7.2
2017-Oct-16 06:00N 47°47' E 035°09'3 6.7
2017-Oct-16 05:30N 47°50' E 035°07'3 5.0
2017-Oct-16 05:00N 47°52' E 035°05'0 0.2
2017-Oct-16 04:30N 47°52' E 035°06'0 0.8
2017-Oct-16 04:00N 47°52' E 035°06'1 2.1
2017-Oct-16 03:30N 47°53' E 035°06'0 0.0
2017-Oct-16 02:57N 47°53' E 035°06'0 0.0
2017-Oct-16 02:25N 47°53' E 035°06'0 0.0
2017-Oct-16 01:55N 47°53' E 035°06'0 0.0
2017-Oct-16 01:25N 47°53' E 035°06'0 0.0
2017-Oct-16 00:55N 47°53' E 035°06'0 0.0
2017-Oct-16 00:25N 47°53' E 035°06'0 0.0
2017-Oct-15 23:55N 47°53' E 035°06'0 0.0
2017-Oct-15 23:25N 47°53' E 035°06'0 0.0
2017-Oct-15 22:55N 47°53' E 035°06'0 0.0
2017-Oct-15 22:25N 47°53' E 035°06'0 0.0
2017-Oct-15 21:55N 47°53' E 035°06'0 0.0
2017-Oct-15 21:25N 47°53' E 035°06'0 0.0
2017-Oct-15 20:55N 47°53' E 035°06'0 0.0
2017-Oct-15 20:25N 47°53' E 035°06'0 0.0
2017-Oct-15 19:55N 47°53' E 035°06'0 0.0
2017-Oct-15 19:25N 47°53' E 035°06'0 0.1
2017-Oct-15 19:00N 47°53' E 035°06'3 6.4
2017-Oct-15 18:31N 47°56' E 035°07'5 7.6
2017-Oct-15 17:49N 48°02' E 035°08'  
2017-Oct-13 06:25N 48°04' E 035°05'3 8.4
2017-Oct-13 06:00N 48°01' E 035°08'4 8.8
2017-Oct-13 05:30N 47°56' E 035°07'4 7.7
2017-Oct-13 05:00N 47°52' E 035°06'0 0.7
2017-Oct-13 04:30N 47°52' E 035°06'0 0.0
2017-Oct-13 04:00N 47°52' E 035°06'0 0.0
2017-Oct-13 03:30N 47°52' E 035°06'0 0.0
2017-Oct-13 03:00N 47°52' E 035°06'0 0.0
2017-Oct-13 02:30N 47°52' E 035°06'0 0.0
2017-Oct-13 02:00N 47°52' E 035°06'0 0.0
2017-Oct-13 01:29N 47°52' E 035°06'0 0.0
2017-Oct-13 00:59N 47°52' E 035°06'0 0.0
2017-Oct-13 00:29N 47°52' E 035°06'0 0.2
2017-Oct-12 23:59N 47°52' E 035°06'0 0.1
2017-Oct-12 23:29N 47°52' E 035°06'0 0.0
2017-Oct-12 22:59N 47°52' E 035°06'0 0.0
2017-Oct-12 22:23N 47°52' E 035°06'0 0.0
2017-Oct-12 21:59N 47°52' E 035°06'0 0.0
2017-Oct-12 21:29N 47°52' E 035°06'0 0.0
2017-Oct-12 20:59N 47°52' E 035°06'0 0.0
2017-Oct-12 20:30N 47°52' E 035°06'0 0.0
2017-Oct-12 19:54N 47°52' E 035°06'0 0.0
2017-Oct-12 19:30N 47°52' E 035°06'0 0.0
2017-Oct-12 19:00N 47°52' E 035°06'  
Track history (hours):
 
Tides and Currents Weather Stations Pressure Air Temp Water Temp Dewpoint Dewpoint Depression Visibility Wind Speed Wind Dir Waves Ship Positions

Semyon Rudnev

Last reported at 2017-Oct-22 18:53 UTC. Time now 2017-Oct-23 04:37 UTC.
Position N 48°03' E 035°07'.

Length 114 m; draft 2.6 m.

Type: Cargo ship. MMSI: 272075000.

Date/timePositionNaut miles runAvg speedWind from/ knotsBaromVisibWave heightAir tempDewpointWater temp
2017-Oct-22 18:53N 48°03' E 035°07'3 7.4
2017-Oct-22 18:30N 47°60' E 035°08'4 7.6
2017-Oct-22 18:00N 47°56' E 035°07'3 6.8
2017-Oct-22 17:30N 47°53' E 035°06'1 1.1
2017-Oct-22 16:55N 47°52' E 035°06'0 0.1
2017-Oct-22 16:25N 47°52' E 035°06'0 0.1
2017-Oct-22 15:55N 47°52' E 035°06'0 0.0
2017-Oct-22 15:25N 47°52' E 035°06'0 0.0
2017-Oct-22 14:55N 47°52' E 035°06'0 0.0
2017-Oct-22 14:25N 47°52' E 035°06'0 0.0
2017-Oct-22 13:54N 47°52' E 035°06'0 0.0
2017-Oct-22 13:30N 47°52' E 035°06'0 0.0
2017-Oct-22 13:00N 47°52' E 035°06'0 0.0
2017-Oct-22 12:28N 47°52' E 035°06'0 0.0
2017-Oct-22 11:58N 47°52' E 035°06'0 0.0
2017-Oct-22 11:28N 47°52' E 035°06'0 0.0
2017-Oct-22 10:56N 47°52' E 035°06'0 0.0
2017-Oct-22 10:26N 47°52' E 035°06'0 0.0
2017-Oct-22 09:56N 47°52' E 035°06'0 0.0
2017-Oct-22 09:26N 47°52' E 035°06'0 0.0
2017-Oct-22 08:57N 47°52' E 035°06'0 0.0
2017-Oct-22 08:27N 47°52' E 035°06'0 0.0
2017-Oct-22 07:52N 47°52' E 035°06'0 0.0
2017-Oct-22 07:28N 47°52' E 035°06'0 0.0
2017-Oct-22 06:58N 47°52' E 035°06'0 0.0
2017-Oct-22 06:28N 47°52' E 035°06'0 0.0
2017-Oct-22 05:58N 47°52' E 035°06'0 0.0
2017-Oct-22 05:28N 47°52' E 035°06'0 0.0
2017-Oct-22 04:58N 47°52' E 035°06'0 0.0
2017-Oct-22 04:28N 47°52' E 035°06'0 0.0
2017-Oct-22 03:58N 47°52' E 035°06'0 0.0
2017-Oct-22 03:28N 47°52' E 035°06'0 0.0
2017-Oct-22 02:58N 47°52' E 035°06'0 0.0
2017-Oct-22 02:28N 47°52' E 035°06'0 0.0
2017-Oct-22 01:58N 47°52' E 035°06'0 0.0
2017-Oct-22 01:28N 47°52' E 035°06'0 0.0
2017-Oct-22 00:58N 47°52' E 035°06'0 0.0
2017-Oct-22 00:27N 47°52' E 035°06'0 0.0
2017-Oct-21 23:57N 47°52' E 035°06'0 0.0
2017-Oct-21 23:28N 47°52' E 035°06'0 0.0
2017-Oct-21 22:58N 47°52' E 035°06'0 0.0
2017-Oct-21 22:22N 47°52' E 035°06'0 0.0
2017-Oct-21 21:58N 47°52' E 035°06'0 0.0
2017-Oct-21 21:28N 47°52' E 035°06'0 0.0
2017-Oct-21 20:58N 47°52' E 035°06'0 0.0
2017-Oct-21 20:21N 47°52' E 035°06'0 0.0
2017-Oct-21 19:57N 47°52' E 035°06'0 0.0
2017-Oct-21 19:27N 47°52' E 035°06'0 0.0
2017-Oct-21 18:57N 47°52' E 035°06'0 0.0
2017-Oct-21 18:27N 47°52' E 035°06'0 0.0
2017-Oct-21 17:57N 47°52' E 035°06'0 0.0
2017-Oct-21 17:27N 47°52' E 035°06'0 0.0
2017-Oct-21 16:57N 47°52' E 035°06'0 0.0
2017-Oct-21 16:27N 47°52' E 035°06'0 0.0
2017-Oct-21 15:57N 47°52' E 035°06'0 0.0
2017-Oct-21 15:15N 47°52' E 035°06'0 0.0
2017-Oct-21 14:57N 47°52' E 035°06'0 0.0
2017-Oct-21 14:27N 47°52' E 035°06'1 0.8
2017-Oct-21 13:30N 47°52' E 035°05'0 0.1
2017-Oct-21 13:00N 47°52' E 035°05'2 3.1
2017-Oct-21 12:30N 47°50' E 035°06'3 4.8
2017-Oct-21 11:58N 47°49' E 035°09'0 0.1
2017-Oct-21 11:30N 47°49' E 035°09'2 3.3
2017-Oct-21 11:01N 47°47' E 035°10'3 6.5
2017-Oct-21 10:30N 47°44' E 035°10'4 7.4
2017-Oct-21 09:59N 47°40' E 035°07'135 5.4
2017-Oct-20 09:01N 46°33' E 032°15'11 7.3
2017-Oct-20 07:29N 46°33' E 031°58'4 7.6
2017-Oct-20 06:59N 46°34' E 031°53'4 7.5
2017-Oct-20 06:30N 46°36' E 031°48'8 7.6
2017-Oct-20 05:26N 46°35' E 031°36'5 6.6
2017-Oct-20 04:41N 46°36' E 031°29'1 7.2
2017-Oct-20 04:29N 46°35' E 031°27'3 0.5
2017-Oct-19 21:18N 46°35' E 031°22'0 0.1
2017-Oct-19 20:31N 46°35' E 031°22'0 4.2
2017-Oct-19 20:27N 46°35' E 031°22'3 7.0
2017-Oct-19 20:00N 46°35' E 031°17'4 7.6
2017-Oct-19 19:30N 46°35' E 031°12'4 7.4
2017-Oct-19 19:00N 46°35' E 031°06'4 7.5
2017-Oct-19 18:30N 46°34' E 031°01'5 6.6
2017-Oct-19 17:46N 46°30' E 030°57'2 7.8
2017-Oct-19 17:30N 46°28' E 030°57'4 7.7
2017-Oct-19 17:00N 46°24' E 030°57'4 7.4
2017-Oct-19 16:30N 46°24' E 030°51'4 6.8
2017-Oct-19 15:59N 46°22' E 030°47'4 7.1
2017-Oct-19 15:26N 46°19' E 030°43'0 0.0
2017-Oct-18 15:56N 46°19' E 030°43'5 7.3
2017-Oct-18 15:12N 46°23' E 030°47'1 7.8
2017-Oct-18 15:01N 46°25' E 030°48'5 4.9
2017-Oct-18 14:00N 46°30' E 030°45'0 0.8
2017-Oct-18 13:30N 46°29' E 030°45'0 0.0
2017-Oct-18 12:55N 46°29' E 030°45'0 0.0
2017-Oct-18 12:29N 46°29' E 030°45'0 0.0
2017-Oct-18 11:45N 46°29' E 030°45'0 0.0
2017-Oct-18 11:23N 46°29' E 030°45'0 0.0
2017-Oct-18 11:00N 46°29' E 030°45'0 0.0
2017-Oct-18 10:29N 46°29' E 030°45'0 0.0
2017-Oct-18 09:57N 46°29' E 030°45'0 0.0
2017-Oct-18 09:29N 46°29' E 030°45'0 0.0
2017-Oct-18 08:41N 46°29' E 030°45'0 0.0
2017-Oct-18 08:18N 46°29' E 030°45'0 0.0
2017-Oct-18 08:00N 46°29' E 030°45'0 0.0
2017-Oct-18 07:30N 46°29' E 030°45'0 0.0
2017-Oct-18 06:53N 46°29' E 030°45'0 0.0
2017-Oct-18 06:29N 46°29' E 030°45'0 0.0
2017-Oct-18 05:53N 46°29' E 030°45'0 0.0
2017-Oct-18 05:25N 46°29' E 030°45'0 0.0
2017-Oct-18 05:00N 46°29' E 030°45'0 0.0
2017-Oct-18 04:28N 46°29' E 030°45'0 0.0
2017-Oct-18 03:42N 46°29' E 030°45'0 0.0
2017-Oct-18 03:27N 46°29' E 030°45'0 0.0
2017-Oct-18 02:58N 46°29' E 030°45'0 0.0
2017-Oct-18 02:22N 46°29' E 030°45'0 0.0
2017-Oct-18 01:33N 46°29' E 030°45'0 0.0
2017-Oct-18 01:27N 46°29' E 030°45'0 0.0
2017-Oct-18 00:51N 46°29' E 030°45'0 0.0
2017-Oct-18 00:30N 46°29' E 030°45'0 0.0
2017-Oct-17 23:56N 46°29' E 030°45'0 0.0
2017-Oct-17 23:24N 46°29' E 030°45'0 0.0
2017-Oct-17 22:21N 46°29' E 030°45'0 0.0
2017-Oct-17 21:55N 46°29' E 030°45'0 0.0
2017-Oct-17 21:25N 46°29' E 030°45'0 0.0
2017-Oct-17 20:39N 46°29' E 030°45'0 0.0
2017-Oct-17 20:11N 46°29' E 030°45'0 0.0
2017-Oct-17 19:56N 46°29' E 030°45'0 0.0
2017-Oct-17 18:32N 46°29' E 030°45'0 0.1
2017-Oct-17 18:29N 46°29' E 030°45'0 0.0
2017-Oct-17 18:00N 46°29' E 030°45'0 0.8
2017-Oct-17 17:30N 46°30' E 030°45'3 5.3
2017-Oct-17 17:00N 46°31' E 030°49'4 7.6
2017-Oct-17 16:29N 46°32' E 030°54'31 7.3
2017-Oct-17 12:10N 46°36' E 031°39'1 7.6
2017-Oct-17 12:00N 46°36' E 031°41'4 7.6
2017-Oct-17 11:30N 46°36' E 031°47'4 7.5
2017-Oct-17 11:00N 46°35' E 031°52'4 7.6
2017-Oct-17 10:30N 46°34' E 031°57'4 7.6
2017-Oct-17 09:59N 46°32' E 032°03'142 5.3
2017-Oct-16 07:03N 47°39' E 035°07'2 7.9
2017-Oct-16 06:48N 47°41' E 035°08'2 7.7
2017-Oct-16 06:30N 47°43' E 035°09'4 7.2
2017-Oct-16 06:00N 47°47' E 035°09'3 6.7
2017-Oct-16 05:30N 47°50' E 035°07'3 5.0
2017-Oct-16 05:00N 47°52' E 035°05'0 0.2
2017-Oct-16 04:30N 47°52' E 035°06'0 0.8
2017-Oct-16 04:00N 47°52' E 035°06'1 2.1
2017-Oct-16 03:30N 47°53' E 035°06'0 0.0
2017-Oct-16 02:57N 47°53' E 035°06'0 0.0
2017-Oct-16 02:25N 47°53' E 035°06'0 0.0
2017-Oct-16 01:55N 47°53' E 035°06'0 0.0
2017-Oct-16 01:25N 47°53' E 035°06'0 0.0
2017-Oct-16 00:55N 47°53' E 035°06'0 0.0
2017-Oct-16 00:25N 47°53' E 035°06'0 0.0
2017-Oct-15 23:55N 47°53' E 035°06'0 0.0
2017-Oct-15 23:25N 47°53' E 035°06'0 0.0
2017-Oct-15 22:55N 47°53' E 035°06'0 0.0
2017-Oct-15 22:25N 47°53' E 035°06'0 0.0
2017-Oct-15 21:55N 47°53' E 035°06'0 0.0
2017-Oct-15 21:25N 47°53' E 035°06'0 0.0
2017-Oct-15 20:55N 47°53' E 035°06'0 0.0
2017-Oct-15 20:25N 47°53' E 035°06'0 0.0
2017-Oct-15 19:55N 47°53' E 035°06'0 0.0
2017-Oct-15 19:25N 47°53' E 035°06'0 0.1
2017-Oct-15 19:00N 47°53' E 035°06'3 6.4
2017-Oct-15 18:31N 47°56' E 035°07'5 7.6
2017-Oct-15 17:49N 48°02' E 035°08'  
2017-Oct-13 06:25N 48°04' E 035°05'3 8.4
2017-Oct-13 06:00N 48°01' E 035°08'4 8.8
2017-Oct-13 05:30N 47°56' E 035°07'4 7.7
2017-Oct-13 05:00N 47°52' E 035°06'0 0.7
2017-Oct-13 04:30N 47°52' E 035°06'0 0.0
2017-Oct-13 04:00N 47°52' E 035°06'0 0.0
2017-Oct-13 03:30N 47°52' E 035°06'0 0.0
2017-Oct-13 03:00N 47°52' E 035°06'0 0.0
2017-Oct-13 02:30N 47°52' E 035°06'0 0.0
2017-Oct-13 02:00N 47°52' E 035°06'0 0.0
2017-Oct-13 01:29N 47°52' E 035°06'0 0.0
2017-Oct-13 00:59N 47°52' E 035°06'0 0.0
2017-Oct-13 00:29N 47°52' E 035°06'0 0.2
2017-Oct-12 23:59N 47°52' E 035°06'0 0.1
2017-Oct-12 23:29N 47°52' E 035°06'0 0.0
2017-Oct-12 22:59N 47°52' E 035°06'0 0.0
2017-Oct-12 22:23N 47°52' E 035°06'0 0.0
2017-Oct-12 21:59N 47°52' E 035°06'0 0.0
2017-Oct-12 21:29N 47°52' E 035°06'0 0.0
2017-Oct-12 20:59N 47°52' E 035°06'0 0.0
2017-Oct-12 20:30N 47°52' E 035°06'0 0.0
2017-Oct-12 19:54N 47°52' E 035°06'0 0.0
2017-Oct-12 19:30N 47°52' E 035°06'0 0.0
2017-Oct-12 19:00N 47°52' E 035°06'  

Dump ship's entire track history